sensor_id;sensor_type;location;lat;lon;timestamp;P1;durP1;ratioP1;P2;durP2;ratioP2
19195;SDS011;9730;48.926;11.376;2022-09-03T00:00:35;4.30;;;2.30;;
19195;SDS011;9730;48.926;11.376;2022-09-03T00:03:07;3.50;;;2.30;;
19195;SDS011;9730;48.926;11.376;2022-09-03T00:05:40;2.17;;;1.98;;
19195;SDS011;9730;48.926;11.376;2022-09-03T00:08:13;4.18;;;1.95;;
19195;SDS011;9730;48.926;11.376;2022-09-03T00:10:48;4.53;;;2.30;;
19195;SDS011;9730;48.926;11.376;2022-09-03T00:13:19;2.75;;;1.90;;
19195;SDS011;9730;48.926;11.376;2022-09-03T00:15:49;4.47;;;2.33;;
19195;SDS011;9730;48.926;11.376;2022-09-03T00:18:18;3.75;;;2.08;;
19195;SDS011;9730;48.926;11.376;2022-09-03T00:20:49;2.50;;;2.30;;
19195;SDS011;9730;48.926;11.376;2022-09-03T00:23:18;3.10;;;2.47;;
19195;SDS011;9730;48.926;11.376;2022-09-03T00:25:48;2.28;;;2.08;;
19195;SDS011;9730;48.926;11.376;2022-09-03T00:28:19;3.47;;;2.95;;
19195;SDS011;9730;48.926;11.376;2022-09-03T00:30:56;3.50;;;2.70;;
19195;SDS011;9730;48.926;11.376;2022-09-03T00:33:39;2.35;;;2.10;;
19195;SDS011;9730;48.926;11.376;2022-09-03T00:36:11;3.22;;;2.40;;
19195;SDS011;9730;48.926;11.376;2022-09-03T00:38:41;3.17;;;2.28;;
19195;SDS011;9730;48.926;11.376;2022-09-03T00:41:11;3.40;;;2.17;;
19195;SDS011;9730;48.926;11.376;2022-09-03T00:43:50;2.97;;;2.25;;
19195;SDS011;9730;48.926;11.376;2022-09-03T00:46:29;2.40;;;2.20;;
19195;SDS011;9730;48.926;11.376;2022-09-03T00:49:08;4.55;;;2.60;;
19195;SDS011;9730;48.926;11.376;2022-09-03T00:51:48;3.22;;;2.33;;
19195;SDS011;9730;48.926;11.376;2022-09-03T00:54:22;3.10;;;2.35;;
19195;SDS011;9730;48.926;11.376;2022-09-03T00:57:03;3.38;;;2.33;;
19195;SDS011;9730;48.926;11.376;2022-09-03T00:59:40;3.17;;;2.22;;
19195;SDS011;9730;48.926;11.376;2022-09-03T01:02:15;2.40;;;2.20;;
19195;SDS011;9730;48.926;11.376;2022-09-03T01:04:54;2.67;;;2.42;;
19195;SDS011;9730;48.926;11.376;2022-09-03T01:07:30;4.88;;;2.22;;
19195;SDS011;9730;48.926;11.376;2022-09-03T01:10:07;2.75;;;2.30;;
19195;SDS011;9730;48.926;11.376;2022-09-03T01:12:43;2.85;;;2.42;;
19195;SDS011;9730;48.926;11.376;2022-09-03T01:15:18;2.28;;;2.08;;
19195;SDS011;9730;48.926;11.376;2022-09-03T01:17:53;2.67;;;2.28;;
19195;SDS011;9730;48.926;11.376;2022-09-03T01:20:34;2.78;;;2.22;;
19195;SDS011;9730;48.926;11.376;2022-09-03T01:26:14;8.02;;;2.70;;
19195;SDS011;9730;48.926;11.376;2022-09-03T01:28:55;2.65;;;2.30;;
19195;SDS011;9730;48.926;11.376;2022-09-03T01:31:33;2.50;;;2.30;;
19195;SDS011;9730;48.926;11.376;2022-09-03T01:34:07;5.25;;;2.75;;
19195;SDS011;9730;48.926;11.376;2022-09-03T01:36:43;3.03;;;2.60;;
19195;SDS011;9730;48.926;11.376;2022-09-03T01:39:20;4.47;;;2.72;;
19195;SDS011;9730;48.926;11.376;2022-09-03T01:41:56;3.53;;;3.03;;
19195;SDS011;9730;48.926;11.376;2022-09-03T01:44:45;3.65;;;3.15;;
19195;SDS011;9730;48.926;11.376;2022-09-03T01:47:33;4.82;;;2.97;;
19195;SDS011;9730;48.926;11.376;2022-09-03T01:50:18;8.30;;;3.08;;
19195;SDS011;9730;48.926;11.376;2022-09-03T01:52:49;4.15;;;3.10;;
19195;SDS011;9730;48.926;11.376;2022-09-03T01:55:23;3.00;;;2.50;;
19195;SDS011;9730;48.926;11.376;2022-09-03T01:57:57;3.92;;;2.85;;
19195;SDS011;9730;48.926;11.376;2022-09-03T02:00:32;3.65;;;2.63;;
19195;SDS011;9730;48.926;11.376;2022-09-03T02:03:04;4.07;;;2.80;;
19195;SDS011;9730;48.926;11.376;2022-09-03T02:05:33;4.80;;;2.90;;
19195;SDS011;9730;48.926;11.376;2022-09-03T02:08:00;3.40;;;2.60;;
19195;SDS011;9730;48.926;11.376;2022-09-03T02:10:29;4.13;;;3.00;;
19195;SDS011;9730;48.926;11.376;2022-09-03T02:12:59;3.50;;;2.83;;
19195;SDS011;9730;48.926;11.376;2022-09-03T02:15:31;4.82;;;2.53;;
19195;SDS011;9730;48.926;11.376;2022-09-03T02:18:00;4.68;;;2.70;;
19195;SDS011;9730;48.926;11.376;2022-09-03T02:20:31;5.20;;;3.22;;
19195;SDS011;9730;48.926;11.376;2022-09-03T02:22:58;19.23;;;3.08;;
19195;SDS011;9730;48.926;11.376;2022-09-03T02:25:28;4.57;;;2.83;;
19195;SDS011;9730;48.926;11.376;2022-09-03T02:27:58;4.68;;;3.15;;
19195;SDS011;9730;48.926;11.376;2022-09-03T02:30:25;11.85;;;2.75;;
19195;SDS011;9730;48.926;11.376;2022-09-03T02:32:53;3.33;;;2.65;;
19195;SDS011;9730;48.926;11.376;2022-09-03T02:35:19;4.50;;;3.20;;
19195;SDS011;9730;48.926;11.376;2022-09-03T02:37:46;4.45;;;2.90;;
19195;SDS011;9730;48.926;11.376;2022-09-03T02:40:12;4.38;;;2.70;;
19195;SDS011;9730;48.926;11.376;2022-09-03T02:42:39;4.05;;;2.72;;
19195;SDS011;9730;48.926;11.376;2022-09-03T02:45:08;3.00;;;2.47;;
19195;SDS011;9730;48.926;11.376;2022-09-03T02:47:41;3.20;;;2.42;;
19195;SDS011;9730;48.926;11.376;2022-09-03T02:50:14;8.10;;;2.50;;
19195;SDS011;9730;48.926;11.376;2022-09-03T02:52:40;3.75;;;2.67;;
19195;SDS011;9730;48.926;11.376;2022-09-03T02:55:07;4.68;;;2.70;;
19195;SDS011;9730;48.926;11.376;2022-09-03T02:57:34;5.32;;;2.65;;
19195;SDS011;9730;48.926;11.376;2022-09-03T03:00:01;4.65;;;2.33;;
19195;SDS011;9730;48.926;11.376;2022-09-03T03:02:28;3.47;;;2.80;;
19195;SDS011;9730;48.926;11.376;2022-09-03T03:04:55;5.68;;;2.60;;
19195;SDS011;9730;48.926;11.376;2022-09-03T03:07:22;3.58;;;2.53;;
19195;SDS011;9730;48.926;11.376;2022-09-03T03:09:50;2.78;;;2.50;;
19195;SDS011;9730;48.926;11.376;2022-09-03T03:12:17;3.95;;;3.00;;
19195;SDS011;9730;48.926;11.376;2022-09-03T03:14:44;4.68;;;2.90;;
19195;SDS011;9730;48.926;11.376;2022-09-03T03:17:10;3.47;;;2.60;;
19195;SDS011;9730;48.926;11.376;2022-09-03T03:19:36;4.28;;;3.25;;
19195;SDS011;9730;48.926;11.376;2022-09-03T03:22:03;2.70;;;2.50;;
19195;SDS011;9730;48.926;11.376;2022-09-03T03:24:31;4.80;;;2.97;;
19195;SDS011;9730;48.926;11.376;2022-09-03T03:26:57;4.30;;;2.83;;
19195;SDS011;9730;48.926;11.376;2022-09-03T03:29:24;3.05;;;2.60;;
19195;SDS011;9730;48.926;11.376;2022-09-03T03:31:51;6.38;;;3.70;;
19195;SDS011;9730;48.926;11.376;2022-09-03T03:34:18;3.88;;;2.80;;
19195;SDS011;9730;48.926;11.376;2022-09-03T03:36:44;4.85;;;2.70;;
19195;SDS011;9730;48.926;11.376;2022-09-03T03:39:11;5.30;;;3.05;;
19195;SDS011;9730;48.926;11.376;2022-09-03T03:41:39;3.40;;;2.70;;
19195;SDS011;9730;48.926;11.376;2022-09-03T03:44:06;4.97;;;3.10;;
19195;SDS011;9730;48.926;11.376;2022-09-03T03:46:34;3.47;;;2.83;;
19195;SDS011;9730;48.926;11.376;2022-09-03T03:49:02;4.70;;;2.85;;
19195;SDS011;9730;48.926;11.376;2022-09-03T03:51:30;3.28;;;2.50;;
19195;SDS011;9730;48.926;11.376;2022-09-03T03:53:57;5.13;;;2.78;;
19195;SDS011;9730;48.926;11.376;2022-09-03T03:56:25;3.22;;;2.80;;
19195;SDS011;9730;48.926;11.376;2022-09-03T03:58:53;3.88;;;3.20;;
19195;SDS011;9730;48.926;11.376;2022-09-03T04:01:21;4.85;;;2.72;;
19195;SDS011;9730;48.926;11.376;2022-09-03T04:03:49;3.10;;;2.78;;
19195;SDS011;9730;48.926;11.376;2022-09-03T04:06:17;4.20;;;3.10;;
19195;SDS011;9730;48.926;11.376;2022-09-03T04:08:45;5.72;;;3.00;;
19195;SDS011;9730;48.926;11.376;2022-09-03T04:11:14;3.07;;;2.77;;
19195;SDS011;9730;48.926;11.376;2022-09-03T04:13:42;6.68;;;3.53;;
19195;SDS011;9730;48.926;11.376;2022-09-03T04:16:12;3.40;;;3.00;;
19195;SDS011;9730;48.926;11.376;2022-09-03T04:18:40;4.55;;;3.90;;
19195;SDS011;9730;48.926;11.376;2022-09-03T04:21:07;3.97;;;3.05;;
19195;SDS011;9730;48.926;11.376;2022-09-03T04:23:36;6.70;;;3.08;;
19195;SDS011;9730;48.926;11.376;2022-09-03T04:26:04;3.13;;;2.83;;
19195;SDS011;9730;48.926;11.376;2022-09-03T04:28:31;5.25;;;3.15;;
19195;SDS011;9730;48.926;11.376;2022-09-03T04:30:59;3.30;;;3.00;;
19195;SDS011;9730;48.926;11.376;2022-09-03T04:33:27;3.53;;;2.60;;
19195;SDS011;9730;48.926;11.376;2022-09-03T04:36:01;4.32;;;3.17;;
19195;SDS011;9730;48.926;11.376;2022-09-03T04:38:29;4.40;;;3.92;;
19195;SDS011;9730;48.926;11.376;2022-09-03T04:40:56;4.05;;;3.33;;
19195;SDS011;9730;48.926;11.376;2022-09-03T04:43:23;6.05;;;2.95;;
19195;SDS011;9730;48.926;11.376;2022-09-03T04:45:50;5.63;;;2.88;;
19195;SDS011;9730;48.926;11.376;2022-09-03T04:48:16;3.60;;;2.72;;
19195;SDS011;9730;48.926;11.376;2022-09-03T04:50:44;7.32;;;3.35;;
19195;SDS011;9730;48.926;11.376;2022-09-03T04:53:10;4.03;;;3.15;;
19195;SDS011;9730;48.926;11.376;2022-09-03T04:55:37;5.80;;;3.20;;
19195;SDS011;9730;48.926;11.376;2022-09-03T04:58:03;5.57;;;2.95;;
19195;SDS011;9730;48.926;11.376;2022-09-03T05:00:31;7.85;;;3.05;;
19195;SDS011;9730;48.926;11.376;2022-09-03T05:02:59;3.53;;;3.00;;
19195;SDS011;9730;48.926;11.376;2022-09-03T05:05:25;4.43;;;3.03;;
19195;SDS011;9730;48.926;11.376;2022-09-03T05:07:53;3.92;;;3.08;;
19195;SDS011;9730;48.926;11.376;2022-09-03T05:10:23;3.53;;;3.17;;
19195;SDS011;9730;48.926;11.376;2022-09-03T05:12:56;4.03;;;2.90;;
19195;SDS011;9730;48.926;11.376;2022-09-03T05:15:23;6.00;;;2.70;;
19195;SDS011;9730;48.926;11.376;2022-09-03T05:17:54;6.95;;;3.20;;
19195;SDS011;9730;48.926;11.376;2022-09-03T05:20:21;3.47;;;3.17;;
19195;SDS011;9730;48.926;11.376;2022-09-03T05:22:48;6.97;;;3.25;;
19195;SDS011;9730;48.926;11.376;2022-09-03T05:25:16;3.75;;;3.30;;
19195;SDS011;9730;48.926;11.376;2022-09-03T05:27:43;4.10;;;3.00;;
19195;SDS011;9730;48.926;11.376;2022-09-03T05:30:10;3.78;;;2.83;;
19195;SDS011;9730;48.926;11.376;2022-09-03T05:32:37;4.43;;;3.30;;
19195;SDS011;9730;48.926;11.376;2022-09-03T05:35:04;3.30;;;2.92;;
19195;SDS011;9730;48.926;11.376;2022-09-03T05:37:31;3.20;;;2.67;;
19195;SDS011;9730;48.926;11.376;2022-09-03T05:39:58;3.05;;;2.75;;
19195;SDS011;9730;48.926;11.376;2022-09-03T05:42:26;5.00;;;3.85;;
19195;SDS011;9730;48.926;11.376;2022-09-03T05:44:52;5.30;;;4.13;;
19195;SDS011;9730;48.926;11.376;2022-09-03T05:47:19;4.05;;;3.65;;
19195;SDS011;9730;48.926;11.376;2022-09-03T05:49:45;4.25;;;3.25;;
19195;SDS011;9730;48.926;11.376;2022-09-03T05:52:12;4.03;;;3.08;;
19195;SDS011;9730;48.926;11.376;2022-09-03T05:54:38;8.35;;;3.50;;
19195;SDS011;9730;48.926;11.376;2022-09-03T05:57:05;3.63;;;2.83;;
19195;SDS011;9730;48.926;11.376;2022-09-03T05:59:32;6.00;;;3.13;;
19195;SDS011;9730;48.926;11.376;2022-09-03T06:01:59;4.10;;;3.10;;
19195;SDS011;9730;48.926;11.376;2022-09-03T06:04:25;7.07;;;3.45;;
19195;SDS011;9730;48.926;11.376;2022-09-03T06:06:52;4.25;;;2.85;;
19195;SDS011;9730;48.926;11.376;2022-09-03T06:09:19;5.53;;;3.42;;
19195;SDS011;9730;48.926;11.376;2022-09-03T06:11:46;7.03;;;3.07;;
19195;SDS011;9730;48.926;11.376;2022-09-03T06:14:14;4.63;;;3.38;;
19195;SDS011;9730;48.926;11.376;2022-09-03T06:16:42;3.10;;;2.80;;
19195;SDS011;9730;48.926;11.376;2022-09-03T06:19:12;3.97;;;3.20;;
19195;SDS011;9730;48.926;11.376;2022-09-03T06:21:39;4.18;;;3.22;;
19195;SDS011;9730;48.926;11.376;2022-09-03T06:24:08;4.97;;;3.22;;
19195;SDS011;9730;48.926;11.376;2022-09-03T06:26:36;6.78;;;3.08;;
19195;SDS011;9730;48.926;11.376;2022-09-03T06:29:02;3.20;;;2.70;;
19195;SDS011;9730;48.926;11.376;2022-09-03T06:31:29;4.80;;;4.05;;
19195;SDS011;9730;48.926;11.376;2022-09-03T06:33:57;20.50;;;7.63;;
19195;SDS011;9730;48.926;11.376;2022-09-03T06:36:24;10.27;;;4.38;;
19195;SDS011;9730;48.926;11.376;2022-09-03T06:38:51;4.38;;;2.70;;
19195;SDS011;9730;48.926;11.376;2022-09-03T06:41:19;4.30;;;2.25;;
19195;SDS011;9730;48.926;11.376;2022-09-03T06:43:49;3.50;;;2.45;;
19195;SDS011;9730;48.926;11.376;2022-09-03T06:48:45;4.05;;;2.45;;
19195;SDS011;9730;48.926;11.376;2022-09-03T06:51:13;3.13;;;2.63;;
19195;SDS011;9730;48.926;11.376;2022-09-03T06:53:42;7.43;;;3.35;;
19195;SDS011;9730;48.926;11.376;2022-09-03T06:56:10;5.82;;;2.78;;
19195;SDS011;9730;48.926;11.376;2022-09-03T06:58:38;3.17;;;2.55;;
19195;SDS011;9730;48.926;11.376;2022-09-03T07:01:08;6.50;;;3.35;;
19195;SDS011;9730;48.926;11.376;2022-09-03T07:03:37;8.98;;;3.10;;
19195;SDS011;9730;48.926;11.376;2022-09-03T07:06:06;3.00;;;2.70;;
19195;SDS011;9730;48.926;11.376;2022-09-03T07:08:35;5.82;;;3.25;;
19195;SDS011;9730;48.926;11.376;2022-09-03T07:11:02;2.70;;;2.47;;
19195;SDS011;9730;48.926;11.376;2022-09-03T07:13:33;2.63;;;2.25;;
19195;SDS011;9730;48.926;11.376;2022-09-03T07:16:00;4.25;;;3.08;;
19195;SDS011;9730;48.926;11.376;2022-09-03T07:18:27;3.25;;;2.00;;
19195;SDS011;9730;48.926;11.376;2022-09-03T07:20:56;4.07;;;1.65;;
19195;SDS011;9730;48.926;11.376;2022-09-03T07:23:24;4.30;;;2.20;;
19195;SDS011;9730;48.926;11.376;2022-09-03T07:25:53;2.13;;;1.73;;
19195;SDS011;9730;48.926;11.376;2022-09-03T07:28:20;4.38;;;1.88;;
19195;SDS011;9730;48.926;11.376;2022-09-03T07:30:47;2.70;;;1.50;;
19195;SDS011;9730;48.926;11.376;2022-09-03T07:33:13;3.28;;;1.42;;
19195;SDS011;9730;48.926;11.376;2022-09-03T07:35:40;1.90;;;1.67;;
19195;SDS011;9730;48.926;11.376;2022-09-03T07:38:06;3.33;;;1.92;;
19195;SDS011;9730;48.926;11.376;2022-09-03T07:40:34;2.95;;;1.50;;
19195;SDS011;9730;48.926;11.376;2022-09-03T07:43:02;1.80;;;1.45;;
19195;SDS011;9730;48.926;11.376;2022-09-03T07:45:28;4.53;;;1.67;;
19195;SDS011;9730;48.926;11.376;2022-09-03T07:47:55;3.70;;;1.52;;
19195;SDS011;9730;48.926;11.376;2022-09-03T07:50:21;3.85;;;1.73;;
19195;SDS011;9730;48.926;11.376;2022-09-03T07:52:48;2.53;;;1.40;;
19195;SDS011;9730;48.926;11.376;2022-09-03T07:55:15;2.53;;;1.70;;
19195;SDS011;9730;48.926;11.376;2022-09-03T07:57:41;3.92;;;1.80;;
19195;SDS011;9730;48.926;11.376;2022-09-03T08:00:10;2.05;;;1.35;;
19195;SDS011;9730;48.926;11.376;2022-09-03T08:02:37;2.47;;;1.75;;
19195;SDS011;9730;48.926;11.376;2022-09-03T08:05:04;5.15;;;1.48;;
19195;SDS011;9730;48.926;11.376;2022-09-03T08:07:31;3.63;;;1.83;;
19195;SDS011;9730;48.926;11.376;2022-09-03T08:09:57;2.88;;;1.15;;
19195;SDS011;9730;48.926;11.376;2022-09-03T08:12:25;2.03;;;1.35;;
19195;SDS011;9730;48.926;11.376;2022-09-03T08:14:52;3.13;;;1.25;;
19195;SDS011;9730;48.926;11.376;2022-09-03T08:17:20;2.83;;;1.17;;
19195;SDS011;9730;48.926;11.376;2022-09-03T08:19:46;1.65;;;1.40;;
19195;SDS011;9730;48.926;11.376;2022-09-03T08:22:13;3.13;;;1.85;;
19195;SDS011;9730;48.926;11.376;2022-09-03T08:24:39;1.40;;;1.20;;
19195;SDS011;9730;48.926;11.376;2022-09-03T08:27:06;1.50;;;1.33;;
19195;SDS011;9730;48.926;11.376;2022-09-03T08:29:33;3.15;;;1.23;;
19195;SDS011;9730;48.926;11.376;2022-09-03T08:32:01;2.70;;;1.42;;
19195;SDS011;9730;48.926;11.376;2022-09-03T08:34:30;1.75;;;1.25;;
19195;SDS011;9730;48.926;11.376;2022-09-03T08:36:57;5.55;;;1.35;;
19195;SDS011;9730;48.926;11.376;2022-09-03T08:41:56;4.18;;;1.50;;
19195;SDS011;9730;48.926;11.376;2022-09-03T08:44:37;2.97;;;1.50;;
19195;SDS011;9730;48.926;11.376;2022-09-03T08:47:10;3.00;;;1.33;;
19195;SDS011;9730;48.926;11.376;2022-09-03T08:49:44;3.03;;;1.40;;
19195;SDS011;9730;48.926;11.376;2022-09-03T08:52:17;1.85;;;1.63;;
19195;SDS011;9730;48.926;11.376;2022-09-03T08:54:50;3.22;;;1.45;;
19195;SDS011;9730;48.926;11.376;2022-09-03T08:57:18;2.45;;;1.77;;
19195;SDS011;9730;48.926;11.376;2022-09-03T08:59:46;4.43;;;1.45;;
19195;SDS011;9730;48.926;11.376;2022-09-03T09:02:16;1.60;;;1.30;;
19195;SDS011;9730;48.926;11.376;2022-09-03T09:04:54;2.63;;;1.60;;
19195;SDS011;9730;48.926;11.376;2022-09-03T09:07:29;2.70;;;1.80;;
19195;SDS011;9730;48.926;11.376;2022-09-03T09:10:02;3.58;;;1.58;;
19195;SDS011;9730;48.926;11.376;2022-09-03T09:12:37;4.88;;;1.50;;
19195;SDS011;9730;48.926;11.376;2022-09-03T09:15:17;4.80;;;1.45;;
19195;SDS011;9730;48.926;11.376;2022-09-03T09:17:55;4.28;;;1.25;;
19195;SDS011;9730;48.926;11.376;2022-09-03T09:20:34;3.55;;;1.50;;
19195;SDS011;9730;48.926;11.376;2022-09-03T09:23:07;2.63;;;1.38;;
19195;SDS011;9730;48.926;11.376;2022-09-03T09:25:40;5.15;;;1.88;;
19195;SDS011;9730;48.926;11.376;2022-09-03T09:28:13;5.03;;;1.92;;
19195;SDS011;9730;48.926;11.376;2022-09-03T09:30:42;4.28;;;1.83;;
19195;SDS011;9730;48.926;11.376;2022-09-03T09:33:11;3.22;;;1.73;;
19195;SDS011;9730;48.926;11.376;2022-09-03T09:35:39;2.58;;;1.77;;
19195;SDS011;9730;48.926;11.376;2022-09-03T09:38:07;3.38;;;1.65;;
19195;SDS011;9730;48.926;11.376;2022-09-03T09:40:35;4.40;;;1.83;;
19195;SDS011;9730;48.926;11.376;2022-09-03T09:43:06;2.38;;;1.60;;
19195;SDS011;9730;48.926;11.376;2022-09-03T09:45:37;3.60;;;1.63;;
19195;SDS011;9730;48.926;11.376;2022-09-03T09:48:07;2.38;;;1.75;;
19195;SDS011;9730;48.926;11.376;2022-09-03T09:50:39;5.18;;;1.70;;
19195;SDS011;9730;48.926;11.376;2022-09-03T09:53:07;2.10;;;1.90;;
19195;SDS011;9730;48.926;11.376;2022-09-03T09:55:52;3.60;;;1.92;;
19195;SDS011;9730;48.926;11.376;2022-09-03T09:58:20;2.40;;;1.98;;
19195;SDS011;9730;48.926;11.376;2022-09-03T10:00:54;4.05;;;2.25;;
19195;SDS011;9730;48.926;11.376;2022-09-03T10:03:22;4.22;;;1.95;;
19195;SDS011;9730;48.926;11.376;2022-09-03T10:05:59;6.35;;;2.00;;
19195;SDS011;9730;48.926;11.376;2022-09-03T10:08:49;3.03;;;2.17;;
19195;SDS011;9730;48.926;11.376;2022-09-03T10:11:16;4.38;;;1.83;;
19195;SDS011;9730;48.926;11.376;2022-09-03T10:13:45;2.25;;;2.03;;
19195;SDS011;9730;48.926;11.376;2022-09-03T10:18:45;3.10;;;2.40;;
19195;SDS011;9730;48.926;11.376;2022-09-03T10:21:22;3.63;;;2.38;;
19195;SDS011;9730;48.926;11.376;2022-09-03T10:23:56;5.15;;;2.03;;
19195;SDS011;9730;48.926;11.376;2022-09-03T10:26:26;5.47;;;2.10;;
19195;SDS011;9730;48.926;11.376;2022-09-03T10:28:57;6.93;;;2.58;;
19195;SDS011;9730;48.926;11.376;2022-09-03T10:31:28;4.63;;;3.03;;
19195;SDS011;9730;48.926;11.376;2022-09-03T10:34:12;4.15;;;2.30;;
19195;SDS011;9730;48.926;11.376;2022-09-03T10:36:45;2.53;;;2.20;;
19195;SDS011;9730;48.926;11.376;2022-09-03T10:39:24;3.42;;;2.35;;
19195;SDS011;9730;48.926;11.376;2022-09-03T10:42:02;4.13;;;2.42;;
19195;SDS011;9730;48.926;11.376;2022-09-03T10:44:49;2.53;;;2.28;;
19195;SDS011;9730;48.926;11.376;2022-09-03T10:47:27;2.70;;;2.47;;
19195;SDS011;9730;48.926;11.376;2022-09-03T10:50:07;3.00;;;2.70;;
19195;SDS011;9730;48.926;11.376;2022-09-03T10:52:43;3.60;;;2.65;;
19195;SDS011;9730;48.926;11.376;2022-09-03T10:55:26;3.30;;;2.85;;
19195;SDS011;9730;48.926;11.376;2022-09-03T10:58:03;5.50;;;2.53;;
19195;SDS011;9730;48.926;11.376;2022-09-03T11:00:38;2.50;;;2.20;;
19195;SDS011;9730;48.926;11.376;2022-09-03T11:03:27;3.83;;;2.45;;
19195;SDS011;9730;48.926;11.376;2022-09-03T11:06:11;2.55;;;2.35;;
19195;SDS011;9730;48.926;11.376;2022-09-03T11:08:45;3.33;;;2.50;;
19195;SDS011;9730;48.926;11.376;2022-09-03T11:11:16;6.32;;;2.38;;
19195;SDS011;9730;48.926;11.376;2022-09-03T11:13:47;3.10;;;2.28;;
19195;SDS011;9730;48.926;11.376;2022-09-03T11:16:19;3.00;;;2.67;;
19195;SDS011;9730;48.926;11.376;2022-09-03T11:18:52;5.45;;;3.33;;
19195;SDS011;9730;48.926;11.376;2022-09-03T11:21:22;4.93;;;2.58;;
19195;SDS011;9730;48.926;11.376;2022-09-03T11:24:00;5.80;;;3.00;;
19195;SDS011;9730;48.926;11.376;2022-09-03T11:26:32;5.45;;;2.90;;
19195;SDS011;9730;48.926;11.376;2022-09-03T11:29:00;4.07;;;2.93;;
19195;SDS011;9730;48.926;11.376;2022-09-03T11:31:37;3.55;;;2.85;;
19195;SDS011;9730;48.926;11.376;2022-09-03T11:34:12;3.40;;;2.92;;
19195;SDS011;9730;48.926;11.376;2022-09-03T11:36:40;6.90;;;3.30;;
19195;SDS011;9730;48.926;11.376;2022-09-03T11:39:18;3.80;;;2.88;;
19195;SDS011;9730;48.926;11.376;2022-09-03T11:41:56;4.20;;;3.15;;
19195;SDS011;9730;48.926;11.376;2022-09-03T11:44:32;4.75;;;3.00;;
19195;SDS011;9730;48.926;11.376;2022-09-03T11:47:11;3.60;;;2.75;;
19195;SDS011;9730;48.926;11.376;2022-09-03T11:52:10;2.88;;;2.55;;
19195;SDS011;9730;48.926;11.376;2022-09-03T11:54:43;3.05;;;2.70;;
19195;SDS011;9730;48.926;11.376;2022-09-03T11:57:11;3.05;;;2.65;;
19195;SDS011;9730;48.926;11.376;2022-09-03T12:02:11;8.32;;;3.58;;
19195;SDS011;9730;48.926;11.376;2022-09-03T12:04:47;4.50;;;3.30;;
19195;SDS011;9730;48.926;11.376;2022-09-03T12:07:25;3.08;;;2.60;;
19195;SDS011;9730;48.926;11.376;2022-09-03T12:10:10;3.17;;;2.88;;
19195;SDS011;9730;48.926;11.376;2022-09-03T12:12:51;3.28;;;2.95;;
19195;SDS011;9730;48.926;11.376;2022-09-03T12:15:30;3.28;;;2.80;;
19195;SDS011;9730;48.926;11.376;2022-09-03T12:18:11;3.00;;;2.70;;
19195;SDS011;9730;48.926;11.376;2022-09-03T12:20:47;4.22;;;2.67;;
19195;SDS011;9730;48.926;11.376;2022-09-03T12:25:53;4.05;;;3.15;;
19195;SDS011;9730;48.926;11.376;2022-09-03T12:28:21;3.92;;;3.17;;
19195;SDS011;9730;48.926;11.376;2022-09-03T12:31:05;4.13;;;3.35;;
19195;SDS011;9730;48.926;11.376;2022-09-03T12:33:46;3.67;;;2.88;;
19195;SDS011;9730;48.926;11.376;2022-09-03T12:36:13;4.38;;;2.92;;
19195;SDS011;9730;48.926;11.376;2022-09-03T12:38:40;3.00;;;2.53;;
19195;SDS011;9730;48.926;11.376;2022-09-03T12:41:19;3.10;;;2.80;;
19195;SDS011;9730;48.926;11.376;2022-09-03T12:43:49;4.65;;;2.90;;
19195;SDS011;9730;48.926;11.376;2022-09-03T12:46:16;3.10;;;2.55;;
19195;SDS011;9730;48.926;11.376;2022-09-03T12:48:55;3.97;;;3.45;;
19195;SDS011;9730;48.926;11.376;2022-09-03T12:51:32;3.08;;;2.47;;
19195;SDS011;9730;48.926;11.376;2022-09-03T12:54:00;5.65;;;2.97;;
19195;SDS011;9730;48.926;11.376;2022-09-03T12:56:31;4.53;;;2.90;;
19195;SDS011;9730;48.926;11.376;2022-09-03T12:59:00;3.03;;;2.70;;
19195;SDS011;9730;48.926;11.376;2022-09-03T13:01:31;5.38;;;2.83;;
19195;SDS011;9730;48.926;11.376;2022-09-03T13:04:01;3.30;;;3.00;;
19195;SDS011;9730;48.926;11.376;2022-09-03T13:06:30;2.92;;;2.63;;
19195;SDS011;9730;48.926;11.376;2022-09-03T13:08:59;3.55;;;2.65;;
19195;SDS011;9730;48.926;11.376;2022-09-03T13:11:31;5.60;;;3.25;;
19195;SDS011;9730;48.926;11.376;2022-09-03T13:14:02;3.83;;;2.70;;
19195;SDS011;9730;48.926;11.376;2022-09-03T13:16:46;3.63;;;3.08;;
19195;SDS011;9730;48.926;11.376;2022-09-03T13:19:29;6.07;;;2.92;;
19195;SDS011;9730;48.926;11.376;2022-09-03T13:22:08;3.92;;;2.85;;
19195;SDS011;9730;48.926;11.376;2022-09-03T13:24:55;3.28;;;2.78;;
19195;SDS011;9730;48.926;11.376;2022-09-03T13:27:30;5.32;;;3.47;;
19195;SDS011;9730;48.926;11.376;2022-09-03T13:30:04;3.28;;;2.97;;
19195;SDS011;9730;48.926;11.376;2022-09-03T13:32:49;4.03;;;3.20;;
19195;SDS011;9730;48.926;11.376;2022-09-03T13:35:25;5.25;;;3.25;;
19195;SDS011;9730;48.926;11.376;2022-09-03T13:37:55;5.45;;;3.90;;
19195;SDS011;9730;48.926;11.376;2022-09-03T13:40:32;5.18;;;3.20;;
19195;SDS011;9730;48.926;11.376;2022-09-03T13:43:03;5.25;;;3.30;;
19195;SDS011;9730;48.926;11.376;2022-09-03T13:45:47;4.47;;;2.60;;
19195;SDS011;9730;48.926;11.376;2022-09-03T13:48:19;8.60;;;2.90;;
19195;SDS011;9730;48.926;11.376;2022-09-03T13:51:10;3.67;;;2.63;;
19195;SDS011;9730;48.926;11.376;2022-09-03T13:53:45;3.80;;;2.95;;
19195;SDS011;9730;48.926;11.376;2022-09-03T13:56:22;3.72;;;2.70;;
19195;SDS011;9730;48.926;11.376;2022-09-03T13:59:03;6.57;;;3.42;;
19195;SDS011;9730;48.926;11.376;2022-09-03T14:01:42;2.85;;;2.45;;
19195;SDS011;9730;48.926;11.376;2022-09-03T14:04:20;6.65;;;2.90;;
19195;SDS011;9730;48.926;11.376;2022-09-03T14:06:56;3.03;;;2.78;;
19195;SDS011;9730;48.926;11.376;2022-09-03T14:09:29;5.90;;;2.80;;
19195;SDS011;9730;48.926;11.376;2022-09-03T14:12:01;3.13;;;2.70;;
19195;SDS011;9730;48.926;11.376;2022-09-03T14:14:36;3.28;;;2.65;;
19195;SDS011;9730;48.926;11.376;2022-09-03T14:17:09;3.10;;;2.67;;
19195;SDS011;9730;48.926;11.376;2022-09-03T14:19:42;3.55;;;3.10;;
19195;SDS011;9730;48.926;11.376;2022-09-03T14:22:14;3.53;;;2.72;;
19195;SDS011;9730;48.926;11.376;2022-09-03T14:24:47;3.05;;;2.70;;
19195;SDS011;9730;48.926;11.376;2022-09-03T14:27:23;3.92;;;2.70;;
19195;SDS011;9730;48.926;11.376;2022-09-03T14:29:53;2.97;;;2.60;;
19195;SDS011;9730;48.926;11.376;2022-09-03T14:32:31;5.20;;;3.13;;
19195;SDS011;9730;48.926;11.376;2022-09-03T14:35:14;3.65;;;3.03;;
19195;SDS011;9730;48.926;11.376;2022-09-03T14:38:00;5.57;;;2.88;;
19195;SDS011;9730;48.926;11.376;2022-09-03T14:40:41;4.78;;;2.95;;
19195;SDS011;9730;48.926;11.376;2022-09-03T14:43:35;4.00;;;2.65;;
19195;SDS011;9730;48.926;11.376;2022-09-03T14:46:19;3.65;;;2.95;;
19195;SDS011;9730;48.926;11.376;2022-09-03T14:51:53;4.75;;;2.80;;
19195;SDS011;9730;48.926;11.376;2022-09-03T14:54:33;5.32;;;3.00;;
19195;SDS011;9730;48.926;11.376;2022-09-03T14:57:12;4.78;;;2.17;;
19195;SDS011;9730;48.926;11.376;2022-09-03T15:00:04;4.43;;;2.40;;
19195;SDS011;9730;48.926;11.376;2022-09-03T15:02:42;4.82;;;2.95;;
19195;SDS011;9730;48.926;11.376;2022-09-03T15:05:19;2.92;;;2.60;;
19195;SDS011;9730;48.926;11.376;2022-09-03T15:08:05;4.32;;;3.17;;
19195;SDS011;9730;48.926;11.376;2022-09-03T15:10:35;3.55;;;3.05;;
19195;SDS011;9730;48.926;11.376;2022-09-03T15:13:08;4.68;;;2.75;;
19195;SDS011;9730;48.926;11.376;2022-09-03T15:15:45;3.75;;;2.97;;
19195;SDS011;9730;48.926;11.376;2022-09-03T15:18:23;4.03;;;3.45;;
19195;SDS011;9730;48.926;11.376;2022-09-03T15:20:57;3.63;;;3.22;;
19195;SDS011;9730;48.926;11.376;2022-09-03T15:23:37;3.88;;;3.47;;
19195;SDS011;9730;48.926;11.376;2022-09-03T15:26:18;4.03;;;3.00;;
19195;SDS011;9730;48.926;11.376;2022-09-03T15:28:55;2.97;;;2.63;;
19195;SDS011;9730;48.926;11.376;2022-09-03T15:31:39;3.30;;;3.00;;
19195;SDS011;9730;48.926;11.376;2022-09-03T15:34:17;3.50;;;3.20;;
19195;SDS011;9730;48.926;11.376;2022-09-03T15:36:57;4.47;;;2.97;;